createdAt,value
2023-02-25T00:02:11.191Z,3.27
2023-02-25T00:04:42.198Z,3.27
2023-02-25T00:07:11.460Z,3.40
2023-02-25T00:09:40.144Z,3.07
2023-02-25T00:12:09.219Z,3.43
2023-02-25T00:14:37.879Z,3.10
2023-02-25T00:17:06.528Z,3.27
2023-02-25T00:19:35.155Z,2.80
2023-02-25T00:22:05.182Z,3.50
2023-02-25T00:24:33.849Z,3.73
2023-02-25T00:27:02.506Z,3.63
2023-02-25T00:29:31.243Z,2.73
2023-02-25T00:32:00.108Z,3.40
2023-02-25T00:34:29.291Z,3.23
2023-02-25T00:36:58.470Z,3.60
2023-02-25T00:39:41.933Z,3.13
2023-02-25T00:42:11.191Z,3.30
2023-02-25T00:44:40.099Z,3.33
2023-02-25T00:47:08.700Z,3.63
2023-02-25T00:49:37.383Z,3.27
2023-02-25T00:52:06.354Z,3.00
2023-02-25T00:54:36.669Z,3.40
2023-02-25T00:57:05.579Z,3.07
2023-02-25T00:59:34.593Z,2.80
2023-02-25T01:02:03.326Z,3.30
2023-02-25T01:04:32.376Z,3.03
2023-02-25T01:07:03.616Z,3.03
2023-02-25T01:09:32.540Z,3.37
2023-02-25T01:12:02.567Z,2.80
2023-02-25T01:14:31.336Z,3.27
2023-02-25T01:17:02.111Z,3.13
2023-02-25T01:19:31.143Z,3.13
2023-02-25T01:22:00.467Z,3.23
2023-02-25T01:24:31.534Z,3.17
2023-02-25T01:27:04.412Z,3.20
2023-02-25T01:29:36.920Z,3.20
2023-02-25T01:32:06.217Z,3.10
2023-02-25T01:34:35.185Z,3.13
2023-02-25T01:37:05.436Z,3.00
2023-02-25T01:39:34.611Z,3.27
2023-02-25T01:42:08.493Z,3.20
2023-02-25T01:45:18.609Z,3.03
2023-02-25T01:47:52.679Z,2.97
2023-02-25T01:50:24.180Z,2.57
2023-02-25T01:52:53.448Z,2.93
2023-02-25T01:55:22.480Z,2.97
2023-02-25T01:57:53.009Z,2.97
2023-02-25T02:00:23.067Z,2.90
2023-02-25T02:02:52.926Z,2.80
2023-02-25T02:05:23.889Z,3.03
2023-02-25T02:07:52.755Z,3.57
2023-02-25T02:10:21.504Z,2.90
2023-02-25T02:12:51.647Z,2.80
2023-02-25T02:15:20.330Z,2.83
2023-02-25T02:17:55.221Z,3.37
2023-02-25T02:20:30.040Z,3.10
2023-02-25T02:23:35.412Z,2.90
2023-02-25T02:26:43.676Z,3.13
2023-02-25T02:30:04.052Z,3.10
2023-02-25T02:32:41.004Z,2.77
2023-02-25T02:35:21.681Z,2.90
2023-02-25T02:38:01.659Z,3.17
2023-02-25T02:40:45.259Z,2.73
2023-02-25T02:43:29.166Z,3.13
2023-02-25T02:46:05.791Z,3.10
2023-02-25T02:48:46.237Z,3.17
2023-02-25T02:51:22.664Z,2.70
2023-02-25T02:53:55.644Z,3.13
2023-02-25T02:56:27.348Z,2.97
2023-02-25T02:59:01.324Z,2.80
2023-02-25T03:01:33.915Z,3.17
2023-02-25T03:04:07.470Z,2.83
2023-02-25T03:06:40.944Z,2.63
2023-02-25T03:09:13.691Z,2.90
2023-02-25T03:11:43.368Z,2.90
2023-02-25T03:14:14.163Z,2.50
2023-02-25T03:16:48.325Z,2.80
2023-02-25T03:19:22.516Z,2.20
2023-02-25T03:21:59.659Z,2.90
2023-02-25T03:24:34.236Z,2.37
2023-02-25T03:27:21.516Z,2.10
2023-02-25T03:29:52.154Z,2.27
2023-02-25T03:32:21.862Z,1.90
2023-02-25T03:34:57.443Z,2.30
2023-02-25T03:37:30.933Z,1.90
2023-02-25T03:40:07.254Z,2.30
2023-02-25T03:42:36.913Z,2.30
2023-02-25T03:45:09.723Z,1.83
2023-02-25T03:47:39.899Z,1.90
2023-02-25T03:50:15.523Z,2.13
2023-02-25T03:52:47.635Z,2.13
2023-02-25T03:55:35.955Z,1.77
2023-02-25T03:58:04.766Z,1.87
2023-02-25T04:00:35.379Z,1.67
2023-02-25T04:03:04.158Z,2.03
2023-02-25T04:05:36.066Z,1.80
2023-02-25T04:08:04.995Z,2.10
2023-02-25T04:10:36.000Z,1.90
2023-02-25T04:13:05.931Z,1.80
2023-02-25T04:15:34.580Z,2.40
2023-02-25T04:18:04.260Z,1.90
2023-02-25T04:20:34.674Z,2.20
2023-02-25T04:23:03.708Z,1.87
2023-02-25T04:25:32.365Z,2.10
2023-02-25T04:28:01.082Z,1.90
2023-02-25T04:30:29.762Z,1.93
2023-02-25T04:32:58.503Z,2.10
2023-02-25T04:35:27.184Z,1.67
2023-02-25T04:37:57.278Z,1.83
2023-02-25T04:40:26.539Z,1.93
2023-02-25T04:42:55.418Z,1.90
2023-02-25T04:45:26.962Z,1.90
2023-02-25T04:47:58.130Z,2.13
2023-02-25T04:50:27.595Z,1.80
2023-02-25T04:52:58.621Z,1.87
2023-02-25T04:55:27.207Z,1.40
2023-02-25T04:57:55.794Z,1.97
2023-02-25T05:00:25.536Z,2.10
2023-02-25T05:02:54.458Z,1.83
2023-02-25T05:05:23.098Z,2.40
2023-02-25T05:07:52.202Z,1.87
2023-02-25T05:10:22.321Z,2.00
2023-02-25T05:12:50.952Z,1.67
2023-02-25T05:15:19.808Z,1.80
2023-02-25T05:17:49.098Z,2.07
2023-02-25T05:20:18.431Z,1.80
2023-02-25T05:22:47.097Z,1.70
2023-02-25T05:25:16.006Z,2.00
2023-02-25T05:27:45.940Z,1.97
2023-02-25T05:30:16.007Z,1.60
2023-02-25T05:32:44.818Z,1.90
2023-02-25T05:35:13.499Z,2.07
2023-02-25T05:37:42.172Z,2.13
2023-02-25T05:40:14.204Z,2.83
2023-02-25T05:42:42.905Z,2.50
2023-02-25T05:45:13.251Z,3.10
2023-02-25T05:47:41.880Z,2.87
2023-02-25T05:50:12.337Z,2.10
2023-02-25T05:52:41.017Z,2.00
2023-02-25T05:55:11.152Z,2.20
2023-02-25T05:57:39.841Z,2.90
2023-02-25T06:00:14.865Z,2.30
2023-02-25T06:02:45.427Z,2.77
2023-02-25T06:05:14.693Z,2.27
2023-02-25T06:07:43.269Z,2.33
2023-02-25T06:10:13.185Z,2.50
2023-02-25T06:12:43.451Z,2.40
2023-02-25T06:15:14.606Z,1.63
2023-02-25T06:17:44.643Z,2.07
2023-02-25T06:20:16.517Z,2.10
2023-02-25T06:22:45.232Z,2.40
2023-02-25T06:25:13.826Z,2.53
2023-02-25T06:27:42.485Z,2.27
2023-02-25T06:30:12.656Z,2.63
2023-02-25T06:32:41.366Z,2.37
2023-02-25T06:35:11.763Z,2.10
2023-02-25T06:37:40.369Z,1.93
2023-02-25T06:40:12.514Z,2.57
2023-02-25T06:42:41.200Z,2.00
2023-02-25T06:45:11.182Z,2.20
2023-02-25T06:47:39.840Z,2.03
2023-02-25T06:50:12.262Z,2.87
2023-02-25T06:52:41.328Z,2.40
2023-02-25T06:55:11.317Z,2.53
2023-02-25T06:57:39.971Z,2.20
2023-02-25T07:00:10.535Z,2.70
2023-02-25T07:02:39.290Z,2.63
2023-02-25T07:05:08.299Z,2.53
